createdAt,value
2023-01-08T00:01:12.494Z,14.13
2023-01-08T00:03:41.030Z,14.38
2023-01-08T00:06:11.830Z,14.70
2023-01-08T00:08:39.986Z,13.80
2023-01-08T00:11:08.436Z,15.00
2023-01-08T00:13:36.500Z,14.75
2023-01-08T00:16:09.094Z,15.52
2023-01-08T00:18:37.351Z,16.10
2023-01-08T00:21:05.800Z,16.90
2023-01-08T00:23:34.244Z,17.33
2023-01-08T00:26:03.333Z,17.10
2023-01-08T00:28:31.072Z,17.25
2023-01-08T00:30:59.126Z,17.35
2023-01-08T00:33:28.432Z,17.63
2023-01-08T00:35:56.170Z,18.08
2023-01-08T00:38:26.968Z,17.98
2023-01-08T00:40:54.970Z,17.80
2023-01-08T00:43:22.797Z,18.02
2023-01-08T00:45:51.913Z,19.30
2023-01-08T00:48:20.129Z,17.70
2023-01-08T00:50:49.427Z,17.73
2023-01-08T00:53:17.255Z,17.80
2023-01-08T00:55:45.195Z,16.80
2023-01-08T00:58:13.368Z,16.70
2023-01-08T01:00:41.999Z,16.08
2023-01-08T01:03:09.778Z,15.23
2023-01-08T01:05:37.666Z,14.82
2023-01-08T01:08:07.075Z,13.98
2023-01-08T01:10:34.882Z,14.63
2023-01-08T01:13:02.663Z,14.98
2023-01-08T01:15:30.567Z,14.38
2023-01-08T01:17:58.494Z,15.15
2023-01-08T01:20:26.405Z,14.20
2023-01-08T01:22:55.120Z,13.70
2023-01-08T01:25:24.271Z,13.05
2023-01-08T01:27:52.029Z,12.30
2023-01-08T01:30:20.043Z,13.07
2023-01-08T01:32:47.819Z,12.57
2023-01-08T01:35:15.678Z,12.40
2023-01-08T01:37:43.464Z,11.90
2023-01-08T01:40:12.099Z,11.43
2023-01-08T01:42:41.226Z,20.65
2023-01-08T01:45:22.466Z,12.88
2023-01-08T01:47:55.302Z,10.85
2023-01-08T01:50:27.548Z,11.00
2023-01-08T01:53:01.272Z,10.20
2023-01-08T01:55:30.487Z,10.20
2023-01-08T01:58:05.847Z,9.88
2023-01-08T02:00:35.614Z,9.38
2023-01-08T02:03:05.220Z,9.63
2023-01-08T02:05:39.917Z,9.10
2023-01-08T02:08:12.550Z,8.93
2023-01-08T02:10:48.507Z,8.63
2023-01-08T02:13:24.155Z,9.13
2023-01-08T02:15:58.290Z,9.73
2023-01-08T02:18:34.227Z,8.85
2023-01-08T02:21:09.613Z,8.90
2023-01-08T02:23:46.485Z,8.35
2023-01-08T02:26:20.445Z,8.60
2023-01-08T02:28:54.788Z,9.23
2023-01-08T02:31:24.457Z,8.90
2023-01-08T02:33:52.734Z,8.70
2023-01-08T02:36:30.399Z,9.15
2023-01-08T02:39:33.913Z,8.30
2023-01-08T02:42:16.367Z,8.38
2023-01-08T02:44:55.311Z,7.43
2023-01-08T02:47:29.286Z,7.93
2023-01-08T02:50:08.673Z,7.45
2023-01-08T02:52:41.835Z,8.10
2023-01-08T02:55:11.699Z,7.40
2023-01-08T02:57:41.444Z,8.13
2023-01-08T03:00:10.854Z,7.03
2023-01-08T03:02:40.520Z,7.22
2023-01-08T03:05:14.434Z,8.00
2023-01-08T03:07:42.488Z,7.43
2023-01-08T03:10:11.817Z,6.80
2023-01-08T03:12:53.851Z,6.60
2023-01-08T03:15:27.594Z,7.13
2023-01-08T03:18:00.238Z,6.95
2023-01-08T03:20:28.494Z,6.90
2023-01-08T03:22:58.742Z,6.70
2023-01-08T03:25:29.318Z,6.32
2023-01-08T03:28:03.467Z,6.03
2023-01-08T03:30:32.821Z,6.15
2023-01-08T03:33:02.444Z,5.70
2023-01-08T03:35:32.760Z,5.28
2023-01-08T03:38:06.083Z,5.20
2023-01-08T03:40:40.680Z,5.15
2023-01-08T03:43:09.929Z,5.50
2023-01-08T03:45:39.739Z,4.85
2023-01-08T03:48:09.127Z,5.00
2023-01-08T03:50:37.834Z,5.13
2023-01-08T03:53:05.583Z,4.30
2023-01-08T03:55:33.489Z,4.82
2023-01-08T03:58:01.213Z,4.50
2023-01-08T04:00:30.708Z,4.32
2023-01-08T04:02:58.568Z,4.03
2023-01-08T04:05:26.363Z,4.30
2023-01-08T04:07:56.928Z,4.50
2023-01-08T04:10:24.845Z,4.07
2023-01-08T04:12:52.942Z,4.50
2023-01-08T04:15:20.989Z,4.10
2023-01-08T04:17:50.118Z,4.22
2023-01-08T04:20:18.205Z,4.05
2023-01-08T04:22:46.235Z,3.90
2023-01-08T04:25:14.006Z,3.85
2023-01-08T04:27:42.154Z,4.45
2023-01-08T04:30:11.586Z,3.83
2023-01-08T04:32:39.499Z,4.32
2023-01-08T04:35:09.504Z,4.40
2023-01-08T04:37:37.290Z,4.38
2023-01-08T04:40:05.974Z,4.35
2023-01-08T04:42:33.800Z,3.70
2023-01-08T04:45:01.905Z,4.43
2023-01-08T04:47:29.738Z,4.18
2023-01-08T04:49:57.730Z,4.13
2023-01-08T04:52:28.823Z,3.80
2023-01-08T04:54:56.613Z,4.15
2023-01-08T04:57:24.476Z,3.78
2023-01-08T04:59:52.353Z,3.67
2023-01-08T05:02:20.810Z,3.78
2023-01-08T05:04:49.135Z,3.78
2023-01-08T05:07:16.900Z,3.75
2023-01-08T05:09:46.017Z,3.67
2023-01-08T05:12:13.807Z,4.07
2023-01-08T05:14:42.343Z,2.90
2023-01-08T05:17:10.296Z,3.50
2023-01-08T05:19:38.505Z,3.30
2023-01-08T05:22:06.338Z,3.35
2023-01-08T05:24:34.047Z,3.47
2023-01-08T05:27:03.263Z,3.38
2023-01-08T05:29:31.305Z,3.53
2023-01-08T05:31:59.120Z,3.45
2023-01-08T05:34:27.458Z,2.63
2023-01-08T05:36:56.143Z,2.90
2023-01-08T05:39:23.857Z,2.65
2023-01-08T05:41:51.716Z,2.60
2023-01-08T05:44:20.880Z,3.13
2023-01-08T05:46:48.604Z,3.25
2023-01-08T05:49:17.041Z,3.33
2023-01-08T05:51:45.060Z,3.17
2023-01-08T05:54:12.822Z,3.20
2023-01-08T05:56:40.571Z,3.40
2023-01-08T05:59:08.347Z,3.60
2023-01-08T06:01:37.674Z,3.42
2023-01-08T06:04:05.618Z,2.97
2023-01-08T06:06:33.593Z,3.13
2023-01-08T06:09:01.330Z,3.50
2023-01-08T06:11:29.203Z,3.10
2023-01-08T06:13:57.178Z,3.50
2023-01-08T06:16:24.977Z,3.10
2023-01-08T06:18:54.124Z,3.80
2023-01-08T06:21:21.961Z,3.35
2023-01-08T06:23:49.699Z,3.47
2023-01-08T06:26:17.485Z,3.60
2023-01-08T06:28:45.541Z,3.75
2023-01-08T06:31:13.434Z,3.90
2023-01-08T06:33:41.245Z,3.50
2023-01-08T06:36:11.046Z,3.35
2023-01-08T06:38:39.282Z,3.40
2023-01-08T06:41:09.042Z,3.60
2023-01-08T06:43:37.415Z,3.33
2023-01-08T06:46:05.701Z,4.05
2023-01-08T06:48:33.637Z,3.50
2023-01-08T06:51:01.934Z,3.42
2023-01-08T06:53:31.664Z,3.65
2023-01-08T06:55:59.379Z,3.75
2023-01-08T06:58:28.714Z,3.50
2023-01-08T07:00:58.863Z,3.55
2023-01-08T07:03:26.786Z,3.67
2023-01-08T07:05:55.129Z,3.70
2023-01-08T07:08:23.039Z,4.43
2023-01-08T07:10:52.426Z,3.92
2023-01-08T07:13:21.054Z,3.90
2023-01-08T07:15:48.907Z,3.60
2023-01-08T07:18:16.696Z,3.80
2023-01-08T07:20:44.640Z,4.07
2023-01-08T07:23:12.919Z,3.80
2023-01-08T07:25:40.931Z,4.35
2023-01-08T07:28:12.674Z,3.97
2023-01-08T07:30:40.595Z,3.80
2023-01-08T07:33:08.400Z,4.10
2023-01-08T07:35:36.949Z,5.00
2023-01-08T07:38:04.885Z,4.45
2023-01-08T07:40:32.944Z,4.05
2023-01-08T07:43:02.069Z,4.63
2023-01-08T07:45:31.945Z,4.85
2023-01-08T07:48:00.287Z,5.03
2023-01-08T07:50:28.875Z,4.72
2023-01-08T07:52:59.369Z,5.20
2023-01-08T07:55:27.745Z,5.07
2023-01-08T07:57:55.992Z,4.72
2023-01-08T08:00:24.181Z,5.40
2023-01-08T08:02:53.532Z,5.53
2023-01-08T08:05:21.442Z,5.22
2023-01-08T08:07:51.536Z,6.10
2023-01-08T08:10:19.440Z,5.53
2023-01-08T08:12:47.370Z,5.22
2023-01-08T08:15:15.575Z,6.07
2023-01-08T08:17:46.975Z,5.78
2023-01-08T08:20:16.974Z,6.43
2023-01-08T08:22:45.334Z,6.95
2023-01-08T08:25:15.196Z,6.75
2023-01-08T08:27:43.237Z,6.63
2023-01-08T08:30:12.145Z,7.38
2023-01-08T08:32:39.927Z,7.18
2023-01-08T08:35:08.498Z,7.65
2023-01-08T08:37:37.574Z,8.18
2023-01-08T08:40:07.041Z,7.40
2023-01-08T08:42:34.874Z,7.90
2023-01-08T08:45:04.503Z,7.88
2023-01-08T08:47:32.322Z,8.00
2023-01-08T08:50:00.142Z,7.45
2023-01-08T08:52:28.319Z,7.40
2023-01-08T08:54:57.470Z,7.25
2023-01-08T08:57:25.441Z,6.82
2023-01-08T08:59:53.465Z,7.90
2023-01-08T09:02:21.412Z,7.47
2023-01-08T09:04:51.442Z,7.22
2023-01-08T09:07:19.265Z,6.72
2023-01-08T09:09:47.322Z,6.93
2023-01-08T09:12:16.600Z,7.10
2023-01-08T09:14:44.395Z,6.50
2023-01-08T09:17:12.200Z,7.32
2023-01-08T09:19:40.223Z,7.78
2023-01-08T09:22:08.009Z,7.10
2023-01-08T09:24:35.931Z,6.45
2023-01-08T09:27:03.760Z,7.10
2023-01-08T09:29:32.879Z,6.85
2023-01-08T09:32:02.269Z,7.00
2023-01-08T09:34:32.619Z,7.28
2023-01-08T09:37:00.460Z,7.90
2023-01-08T09:39:28.627Z,8.02
2023-01-08T09:41:57.816Z,9.93
2023-01-08T09:44:31.160Z,9.63
2023-01-08T09:47:01.080Z,9.23
2023-01-08T09:49:38.639Z,10.27
2023-01-08T09:52:06.782Z,10.60
2023-01-08T09:54:34.696Z,11.95
2023-01-08T09:57:03.371Z,12.82
2023-01-08T09:59:31.409Z,13.15
2023-01-08T10:02:00.770Z,13.05
2023-01-08T10:04:31.219Z,13.95
2023-01-08T10:07:03.224Z,14.52
2023-01-08T10:09:32.580Z,14.85
2023-01-08T10:12:04.052Z,16.33
2023-01-08T10:14:35.271Z,17.60
2023-01-08T10:17:13.116Z,15.45
2023-01-08T10:19:41.027Z,17.63
2023-01-08T10:22:13.850Z,17.92
2023-01-08T10:24:41.693Z,19.30
2023-01-08T10:27:13.009Z,18.38
2023-01-08T10:29:40.797Z,18.10
2023-01-08T10:32:16.868Z,19.92
2023-01-08T10:34:48.357Z,21.02
2023-01-08T10:37:23.258Z,20.17
2023-01-08T10:39:52.573Z,18.70
2023-01-08T10:42:22.755Z,21.40
2023-01-08T10:44:57.827Z,21.02
2023-01-08T10:47:30.233Z,21.60
2023-01-08T10:49:59.501Z,21.98
2023-01-08T10:52:31.692Z,20.33
2023-01-08T10:55:12.946Z,21.77
2023-01-08T10:57:55.096Z,20.33
2023-01-08T11:00:28.155Z,22.00
2023-01-08T11:02:59.911Z,23.60
2023-01-08T11:05:36.357Z,23.23
2023-01-08T11:08:07.797Z,24.15
2023-01-08T11:10:38.175Z,25.15
2023-01-08T11:13:09.063Z,24.58
2023-01-08T11:15:39.830Z,22.45
2023-01-08T11:18:23.927Z,22.70
2023-01-08T11:20:53.595Z,24.42
2023-01-08T11:23:23.147Z,25.85
2023-01-08T11:25:59.561Z,24.15
2023-01-08T11:28:34.494Z,24.33
2023-01-08T11:31:12.860Z,25.77
2023-01-08T11:33:46.107Z,24.05
2023-01-08T11:36:23.511Z,25.45
2023-01-08T11:38:51.352Z,26.13
2023-01-08T11:41:31.208Z,24.33
2023-01-08T11:44:13.572Z,25.35
2023-01-08T11:46:50.713Z,26.30
2023-01-08T11:49:40.279Z,27.77
2023-01-08T11:52:24.699Z,26.48
2023-01-08T11:55:16.742Z,25.05
2023-01-08T11:57:58.204Z,26.10
2023-01-08T12:00:48.204Z,25.85
2023-01-08T12:03:27.547Z,26.08
2023-01-08T12:06:05.892Z,27.05
2023-01-08T12:08:44.670Z,25.15
2023-01-08T12:11:21.659Z,28.42
2023-01-08T12:14:12.153Z,28.00
2023-01-08T12:17:00.130Z,28.48
2023-01-08T12:19:44.046Z,27.90
2023-01-08T12:22:30.248Z,29.48
2023-01-08T12:25:21.413Z,28.00
2023-01-08T12:28:00.537Z,30.30
2023-01-08T12:30:42.460Z,27.45
2023-01-08T12:33:17.341Z,29.13
2023-01-08T12:35:50.346Z,28.33
2023-01-08T12:38:23.784Z,29.63
2023-01-08T12:40:56.224Z,29.63
2023-01-08T12:43:28.283Z,29.00
2023-01-08T12:46:00.445Z,29.75
2023-01-08T12:48:30.320Z,28.77
2023-01-08T12:51:03.201Z,29.60
2023-01-08T12:53:44.720Z,30.75
2023-01-08T12:56:17.410Z,30.42
2023-01-08T12:59:09.279Z,28.85
2023-01-08T13:01:48.244Z,28.33
2023-01-08T13:04:16.342Z,28.27
2023-01-08T13:06:52.425Z,28.35
2023-01-08T13:09:26.672Z,30.13
2023-01-08T13:11:57.397Z,30.83
2023-01-08T13:14:27.441Z,30.63
2023-01-08T13:17:04.294Z,31.38
2023-01-08T13:19:40.798Z,30.67
2023-01-08T13:22:34.922Z,30.08
2023-01-08T13:25:30.325Z,29.13
2023-01-08T13:27:59.207Z,28.90
2023-01-08T13:30:39.475Z,30.40
2023-01-08T13:33:27.578Z,31.60
2023-01-08T13:36:15.814Z,29.85
2023-01-08T13:38:44.276Z,31.10
2023-01-08T13:41:30.622Z,30.23
2023-01-08T13:44:02.526Z,29.73
2023-01-08T13:46:30.602Z,30.73
2023-01-08T13:49:02.889Z,31.67
2023-01-08T13:51:41.147Z,31.00
2023-01-08T13:54:28.355Z,30.17
2023-01-08T13:57:05.903Z,31.17
2023-01-08T13:59:44.749Z,30.98
2023-01-08T14:02:28.851Z,32.25
2023-01-08T14:04:57.289Z,31.42
2023-01-08T14:07:25.489Z,31.20
2023-01-08T14:09:53.685Z,30.98
2023-01-08T14:12:25.052Z,30.88
2023-01-08T14:14:58.806Z,31.90
2023-01-08T14:17:31.230Z,29.50
2023-01-08T14:19:59.887Z,32.13
2023-01-08T14:22:32.407Z,31.80
2023-01-08T14:25:05.103Z,32.53
2023-01-08T14:27:35.291Z,32.40
2023-01-08T14:30:03.192Z,33.30
2023-01-08T14:32:31.977Z,32.47
2023-01-08T14:35:02.019Z,31.35
2023-01-08T14:37:29.942Z,35.28
2023-01-08T14:39:57.919Z,33.22
2023-01-08T14:42:47.084Z,33.15
2023-01-08T14:45:20.937Z,30.40
2023-01-08T14:47:50.860Z,33.35
2023-01-08T14:50:22.094Z,32.10
2023-01-08T14:52:52.003Z,31.65
2023-01-08T14:55:22.090Z,33.80
2023-01-08T14:57:52.378Z,35.58
2023-01-08T15:00:25.880Z,32.63
2023-01-08T15:02:55.430Z,34.10
2023-01-08T15:05:28.276Z,33.78
2023-01-08T15:07:59.890Z,33.30
2023-01-08T15:10:37.635Z,31.80
2023-01-08T15:13:07.647Z,31.23
2023-01-08T15:15:52.157Z,32.90
2023-01-08T15:18:20.284Z,31.10
2023-01-08T15:20:48.110Z,30.27
2023-01-08T15:23:28.224Z,31.63
2023-01-08T15:25:57.567Z,29.20
2023-01-08T15:28:26.730Z,30.60
2023-01-08T15:30:58.069Z,30.38
2023-01-08T15:33:27.332Z,29.30
2023-01-08T15:35:55.498Z,30.63
2023-01-08T15:38:24.024Z,27.45
2023-01-08T15:40:54.130Z,27.60
2023-01-08T15:43:21.664Z,30.98
2023-01-08T15:45:51.301Z,27.20
2023-01-08T15:48:20.624Z,29.63
2023-01-08T15:50:48.457Z,28.30
2023-01-08T15:53:24.043Z,28.55
2023-01-08T15:55:52.261Z,25.52
2023-01-08T15:58:20.051Z,25.13
2023-01-08T16:00:48.134Z,25.45
2023-01-08T16:03:17.331Z,27.00
2023-01-08T16:05:46.724Z,27.50
2023-01-08T16:08:14.487Z,26.23
2023-01-08T16:10:44.766Z,25.35
2023-01-08T16:13:13.488Z,24.55
2023-01-08T16:15:41.290Z,23.27
2023-01-08T16:18:09.498Z,23.17
2023-01-08T16:20:37.382Z,24.30
2023-01-08T16:23:06.835Z,23.55
2023-01-08T16:25:34.797Z,22.98
2023-01-08T16:28:03.424Z,21.20
2023-01-08T16:30:31.429Z,21.48
2023-01-08T16:32:59.375Z,21.05
2023-01-08T16:35:28.480Z,19.67
2023-01-08T16:37:57.093Z,19.52
2023-01-08T16:40:28.426Z,20.20
2023-01-08T16:43:02.967Z,18.85
2023-01-08T16:45:31.133Z,19.30
2023-01-08T16:47:59.071Z,19.75
2023-01-08T16:50:26.876Z,18.90
2023-01-08T16:52:54.621Z,17.52
2023-01-08T16:55:22.522Z,18.08
2023-01-08T16:57:52.576Z,19.15
2023-01-08T17:00:22.433Z,18.38
2023-01-08T17:02:50.315Z,18.42
2023-01-08T17:05:18.334Z,18.75
2023-01-08T17:07:46.107Z,20.85
2023-01-08T17:10:14.002Z,21.65
2023-01-08T17:12:41.938Z,21.00
2023-01-08T17:15:12.097Z,23.23
2023-01-08T17:17:39.848Z,23.17
2023-01-08T17:20:08.900Z,24.45
2023-01-08T17:22:37.019Z,25.52
2023-01-08T17:25:05.262Z,25.50
2023-01-08T17:27:35.801Z,28.27
2023-01-08T17:30:03.605Z,26.27
2023-01-08T17:32:33.016Z,28.13
2023-01-08T17:35:01.488Z,26.63
2023-01-08T17:37:30.433Z,25.50
2023-01-08T17:39:58.257Z,24.50
2023-01-08T17:42:26.857Z,23.45
2023-01-08T17:44:57.033Z,22.05
2023-01-08T17:47:25.992Z,22.38
2023-01-08T17:49:56.982Z,20.48
2023-01-08T17:52:26.988Z,19.50
2023-01-08T17:54:55.085Z,19.92
2023-01-08T17:57:23.106Z,18.75
2023-01-08T17:59:51.029Z,18.48
2023-01-08T18:02:19.166Z,18.80
2023-01-08T18:04:48.397Z,18.05
2023-01-08T18:07:18.160Z,18.75
2023-01-08T18:09:45.922Z,18.15
2023-01-08T18:12:13.703Z,17.38
2023-01-08T18:14:41.989Z,16.48
2023-01-08T18:17:09.715Z,17.42
2023-01-08T18:19:38.009Z,16.48
2023-01-08T18:22:05.834Z,18.65
2023-01-08T18:24:35.761Z,17.05
2023-01-08T18:27:04.173Z,15.25
2023-01-08T18:29:32.132Z,15.38
2023-01-08T18:32:00.803Z,15.93
2023-01-08T18:34:28.617Z,15.38
2023-01-08T18:36:56.598Z,15.20
2023-01-08T18:39:26.570Z,15.05
2023-01-08T18:42:13.439Z,13.88
2023-01-08T18:44:41.256Z,15.90
2023-01-08T18:47:09.554Z,14.30
2023-01-08T18:49:38.884Z,12.95
2023-01-08T18:52:06.769Z,13.18
2023-01-08T18:54:35.645Z,17.83
2023-01-08T18:57:06.307Z,13.82
2023-01-08T18:59:34.058Z,13.82
2023-01-08T19:02:02.263Z,13.57
2023-01-08T19:04:30.219Z,12.93
2023-01-08T19:06:58.033Z,13.30
2023-01-08T19:09:25.997Z,14.85
2023-01-08T19:11:54.848Z,12.32
2023-01-08T19:14:23.967Z,16.40
2023-01-08T19:16:53.118Z,12.25
2023-01-08T19:19:21.532Z,12.50
2023-01-08T19:21:49.414Z,11.75
2023-01-08T19:24:17.161Z,11.32
2023-01-08T19:26:45.102Z,11.38
2023-01-08T19:29:13.397Z,12.00
2023-01-08T19:31:44.906Z,12.73
2023-01-08T19:34:12.927Z,13.00
2023-01-08T19:36:43.580Z,12.02
2023-01-08T19:39:11.631Z,11.00
2023-01-08T19:41:57.110Z,11.65
2023-01-08T19:44:26.225Z,11.45
2023-01-08T19:46:56.332Z,10.93
2023-01-08T19:49:25.666Z,12.15
2023-01-08T19:51:53.768Z,11.38
2023-01-08T19:54:23.748Z,11.30
2023-01-08T19:56:51.584Z,11.10
2023-01-08T19:59:19.563Z,11.55
2023-01-08T20:01:47.677Z,10.32
2023-01-08T20:04:17.093Z,11.55
2023-01-08T20:06:44.891Z,12.27
2023-01-08T20:09:13.770Z,10.60
2023-01-08T20:11:41.544Z,11.25
2023-01-08T20:14:09.273Z,12.15
2023-01-08T20:16:37.643Z,12.43
2023-01-08T20:19:05.859Z,10.55
2023-01-08T20:21:35.430Z,11.27
2023-01-08T20:24:08.810Z,11.95
2023-01-08T20:26:37.732Z,10.85
2023-01-08T20:29:05.597Z,11.65
2023-01-08T20:31:34.579Z,10.88
2023-01-08T20:34:04.282Z,12.60
2023-01-08T20:36:33.900Z,10.35
2023-01-08T20:39:05.257Z,10.13
2023-01-08T20:41:33.108Z,11.95
2023-01-08T20:44:05.329Z,11.32
2023-01-08T20:46:34.080Z,10.73
2023-01-08T20:49:03.977Z,10.30
2023-01-08T20:51:32.452Z,10.40
2023-01-08T20:54:03.480Z,10.32
2023-01-08T20:56:31.360Z,9.77
2023-01-08T20:58:59.151Z,11.00
2023-01-08T21:01:31.291Z,9.20
2023-01-08T21:03:59.848Z,9.95
2023-01-08T21:06:30.199Z,10.45
2023-01-08T21:09:00.185Z,10.18
2023-01-08T21:11:30.478Z,10.57
2023-01-08T21:13:58.198Z,13.63
2023-01-08T21:16:28.397Z,12.95
2023-01-08T21:18:56.417Z,13.48
2023-01-08T21:21:28.612Z,11.35
2023-01-08T21:23:59.264Z,10.90
2023-01-08T21:26:29.688Z,9.63
2023-01-08T21:28:59.884Z,9.73
2023-01-08T21:31:28.510Z,9.77
2023-01-08T21:33:58.426Z,9.15
2023-01-08T21:36:28.030Z,9.57
2023-01-08T21:38:57.677Z,8.70
2023-01-08T21:41:46.199Z,8.80
2023-01-08T21:44:34.607Z,8.80
2023-01-08T21:47:02.916Z,8.68
2023-01-08T21:49:31.747Z,8.52
2023-01-08T21:52:17.559Z,8.95
2023-01-08T21:54:46.413Z,9.07
2023-01-08T21:57:16.700Z,9.85
2023-01-08T21:59:48.460Z,9.13
2023-01-08T22:02:18.841Z,9.63
2023-01-08T22:04:46.904Z,10.07
2023-01-08T22:07:15.904Z,10.00
2023-01-08T22:09:43.703Z,9.93
2023-01-08T22:12:11.555Z,10.60
2023-01-08T22:14:39.467Z,10.63
2023-01-08T22:17:08.694Z,10.32
2023-01-08T22:19:37.926Z,9.70
2023-01-08T22:22:05.942Z,9.73
2023-01-08T22:24:33.683Z,10.65
2023-01-08T22:27:01.562Z,9.68
2023-01-08T22:29:29.327Z,10.45
2023-01-08T22:31:58.451Z,10.00
2023-01-08T22:34:32.038Z,10.43
2023-01-08T22:36:59.830Z,10.20
2023-01-08T22:39:27.988Z,9.60
2023-01-08T22:41:55.831Z,10.20
2023-01-08T22:44:23.769Z,8.82
2023-01-08T22:46:54.017Z,7.95
2023-01-08T22:49:21.805Z,9.82
2023-01-08T22:51:51.016Z,8.52
2023-01-08T22:54:18.853Z,8.55
2023-01-08T22:56:46.915Z,9.13
2023-01-08T22:59:14.637Z,9.07
2023-01-08T23:01:42.416Z,9.00
2023-01-08T23:04:11.209Z,8.23
2023-01-08T23:06:39.262Z,8.98
2023-01-08T23:09:09.003Z,8.57
2023-01-08T23:11:38.058Z,8.05
2023-01-08T23:14:05.873Z,8.52
2023-01-08T23:16:33.692Z,8.90
2023-01-08T23:19:03.115Z,8.75
2023-01-08T23:21:31.227Z,8.73
2023-01-08T23:23:59.131Z,8.77
2023-01-08T23:26:30.575Z,7.90
2023-01-08T23:28:59.188Z,7.15
2023-01-08T23:31:29.439Z,6.57
2023-01-08T23:33:58.002Z,6.30
2023-01-08T23:36:26.557Z,6.40
2023-01-08T23:38:57.047Z,6.65
2023-01-08T23:41:33.762Z,6.22
2023-01-08T23:44:05.700Z,6.05
2023-01-08T23:46:35.147Z,6.05
2023-01-08T23:49:03.171Z,6.15
2023-01-08T23:51:31.502Z,6.40
2023-01-08T23:53:59.398Z,5.90
2023-01-08T23:56:32.505Z,5.75
2023-01-08T23:59:00.272Z,6.20
